createdAt,value
2019-02-26T00:00:33.351Z,33.90
2019-02-26T00:01:33.335Z,36.80
2019-02-26T00:02:33.321Z,31.80
2019-02-26T00:03:35.260Z,34.30
2019-02-26T00:04:34.940Z,31.20
2019-02-26T00:05:33.291Z,33.30
2019-02-26T00:06:33.290Z,32.60
2019-02-26T00:07:33.268Z,33.80
2019-02-26T00:08:33.599Z,34.70
2019-02-26T00:09:35.322Z,37.10
2019-02-26T00:10:35.951Z,37.10
2019-02-26T00:11:34.071Z,36.00
2019-02-26T00:12:33.945Z,34.60
2019-02-26T00:13:34.601Z,34.50
2019-02-26T00:14:33.188Z,35.20
2019-02-26T00:15:35.544Z,35.90
2019-02-26T00:16:37.658Z,35.10
2019-02-26T00:17:38.633Z,33.50
2019-02-26T00:18:34.150Z,34.10
2019-02-26T00:19:33.141Z,33.70
2019-02-26T00:20:34.341Z,33.80
2019-02-26T00:21:33.131Z,34.50
2019-02-26T00:22:34.459Z,33.30
2019-02-26T00:23:33.098Z,33.70
2019-02-26T00:24:35.305Z,33.90
2019-02-26T00:25:33.054Z,33.70
2019-02-26T00:26:34.098Z,33.50
2019-02-26T00:27:35.042Z,36.30
2019-02-26T00:28:34.163Z,35.50
2019-02-26T00:29:33.004Z,33.60
2019-02-26T00:30:33.856Z,32.50
2019-02-26T00:31:33.028Z,36.10
2019-02-26T00:32:33.888Z,35.20
2019-02-26T00:33:32.964Z,33.00
2019-02-26T00:34:34.590Z,34.40
2019-02-26T00:35:32.950Z,34.00
2019-02-26T00:36:33.746Z,38.70
2019-02-26T00:37:32.916Z,35.10
2019-02-26T00:38:33.738Z,35.40
2019-02-26T00:39:32.905Z,36.50
2019-02-26T00:40:34.941Z,35.70
2019-02-26T00:41:33.634Z,34.10
2019-02-26T00:42:34.247Z,36.50
2019-02-26T00:43:34.510Z,35.70
2019-02-26T00:44:35.262Z,34.30
2019-02-26T00:45:34.037Z,36.00
2019-02-26T00:46:34.722Z,36.10
2019-02-26T00:47:34.469Z,35.80
2019-02-26T00:48:33.724Z,36.90
2019-02-26T00:49:32.817Z,32.00
2019-02-26T00:50:35.029Z,37.20
2019-02-26T00:51:32.783Z,36.10
2019-02-26T00:52:34.718Z,33.50
2019-02-26T00:53:33.079Z,34.20
2019-02-26T00:54:34.387Z,35.70
2019-02-26T00:55:34.814Z,32.60
2019-02-26T00:56:34.036Z,34.50
2019-02-26T00:57:33.536Z,31.20
2019-02-26T00:58:37.010Z,33.80
2019-02-26T00:59:36.368Z,35.30
2019-02-26T01:00:33.198Z,33.80
2019-02-26T01:01:32.675Z,34.80
2019-02-26T01:02:32.659Z,35.70
2019-02-26T01:03:32.645Z,34.50
2019-02-26T01:04:32.631Z,34.30
2019-02-26T01:05:34.052Z,34.10
2019-02-26T01:06:33.538Z,36.80
2019-02-26T01:07:32.610Z,32.00
2019-02-26T01:08:32.580Z,32.90
2019-02-26T01:09:34.058Z,35.20
2019-02-26T01:10:34.471Z,36.30
2019-02-26T01:11:32.565Z,33.90
2019-02-26T01:12:33.031Z,32.90
2019-02-26T01:13:32.533Z,34.50
2019-02-26T01:14:32.518Z,32.50
2019-02-26T01:15:32.511Z,31.80
2019-02-26T01:16:32.510Z,32.30
2019-02-26T01:17:33.377Z,38.00
2019-02-26T01:18:32.491Z,31.80
2019-02-26T01:19:34.050Z,32.20
2019-02-26T01:20:32.445Z,35.20
2019-02-26T01:21:34.104Z,35.80
2019-02-26T01:22:33.055Z,33.00
2019-02-26T01:23:32.421Z,34.30
2019-02-26T01:24:32.735Z,33.40
2019-02-26T01:25:32.412Z,35.80
2019-02-26T01:26:32.422Z,32.40
2019-02-26T01:27:32.376Z,33.90
2019-02-26T01:28:32.363Z,35.70
2019-02-26T01:29:32.437Z,33.00
2019-02-26T01:30:35.657Z,34.10
2019-02-26T01:31:33.973Z,35.70
2019-02-26T01:32:32.312Z,35.10
2019-02-26T01:33:34.207Z,35.40
2019-02-26T01:34:32.324Z,34.60
2019-02-26T01:35:33.140Z,34.30
2019-02-26T01:36:32.286Z,36.90
2019-02-26T01:37:34.299Z,35.20
2019-02-26T01:38:32.257Z,34.30
2019-02-26T01:39:32.242Z,36.40
2019-02-26T01:40:32.236Z,40.30
2019-02-26T01:41:32.218Z,34.90
2019-02-26T01:42:32.226Z,37.50
2019-02-26T01:43:32.187Z,35.10
2019-02-26T01:44:34.586Z,34.60
2019-02-26T01:45:32.443Z,37.80
2019-02-26T01:46:32.883Z,35.70
2019-02-26T01:47:32.172Z,35.70
2019-02-26T01:48:34.350Z,34.90
2019-02-26T01:49:32.129Z,35.60
2019-02-26T01:50:33.450Z,33.70
2019-02-26T01:51:32.123Z,34.50
2019-02-26T01:52:32.123Z,33.10
2019-02-26T01:53:32.157Z,34.90
2019-02-26T01:54:33.404Z,34.10
2019-02-26T01:55:32.059Z,37.30
2019-02-26T01:56:34.042Z,36.30
2019-02-26T01:57:32.059Z,37.00
2019-02-26T01:58:33.578Z,36.40
2019-02-26T01:59:34.540Z,36.80
2019-02-26T02:00:32.010Z,35.20
2019-02-26T02:01:31.995Z,33.00
2019-02-26T02:02:32.008Z,35.10
2019-02-26T02:03:32.628Z,36.60
2019-02-26T02:04:32.476Z,33.40
2019-02-26T02:05:31.959Z,35.80
2019-02-26T02:06:33.144Z,35.50
2019-02-26T02:07:31.943Z,34.40
2019-02-26T02:08:31.938Z,33.30
2019-02-26T02:09:31.916Z,35.50
2019-02-26T02:10:31.899Z,36.00
2019-02-26T02:11:33.490Z,37.10
2019-02-26T02:12:33.926Z,34.40
2019-02-26T02:13:33.123Z,33.10
2019-02-26T02:14:31.853Z,35.30
2019-02-26T02:15:31.847Z,35.20
2019-02-26T02:16:33.136Z,34.90
2019-02-26T02:17:33.388Z,34.70
2019-02-26T02:18:31.807Z,33.50
2019-02-26T02:19:32.669Z,37.70
2019-02-26T02:20:31.793Z,32.70
2019-02-26T02:21:33.790Z,35.50
2019-02-26T02:22:33.083Z,36.80
2019-02-26T02:23:31.755Z,33.40
2019-02-26T02:24:31.754Z,34.20
2019-02-26T02:25:33.805Z,35.90
2019-02-26T02:26:31.731Z,35.60
2019-02-26T02:27:33.303Z,35.40
2019-02-26T02:28:33.713Z,38.60
2019-02-26T02:29:31.705Z,38.90
2019-02-26T02:30:35.436Z,36.90
2019-02-26T02:31:34.900Z,35.90
2019-02-26T02:32:34.294Z,35.50
2019-02-26T02:33:32.958Z,36.30
2019-02-26T02:34:33.076Z,35.40
2019-02-26T02:35:31.627Z,36.20
2019-02-26T02:36:31.601Z,36.40
2019-02-26T02:37:31.985Z,37.30
2019-02-26T02:38:36.430Z,39.30
2019-02-26T02:39:32.575Z,35.80
2019-02-26T02:40:31.571Z,38.20
2019-02-26T02:41:31.548Z,40.10
2019-02-26T02:42:31.561Z,39.20
2019-02-26T02:43:31.543Z,40.00
2019-02-26T02:44:31.509Z,38.90
2019-02-26T02:45:31.498Z,40.90
2019-02-26T02:46:31.550Z,40.30
2019-02-26T02:47:35.741Z,38.30
2019-02-26T02:48:31.490Z,37.90
2019-02-26T02:49:32.888Z,36.30
2019-02-26T02:50:31.441Z,39.00
2019-02-26T02:51:33.974Z,39.70
2019-02-26T02:52:33.149Z,40.20
2019-02-26T02:53:32.327Z,40.50
2019-02-26T02:54:31.395Z,39.90
2019-02-26T02:55:31.404Z,38.10
2019-02-26T02:56:33.263Z,38.90
2019-02-26T02:57:32.489Z,38.00
2019-02-26T02:58:31.359Z,38.50
2019-02-26T02:59:33.875Z,40.60
2019-02-26T03:00:34.223Z,36.30
2019-02-26T03:01:31.339Z,41.10
2019-02-26T03:02:31.333Z,42.00
2019-02-26T03:03:31.312Z,40.40
2019-02-26T03:04:34.502Z,41.80
2019-02-26T03:05:32.077Z,39.50
2019-02-26T03:06:32.509Z,39.50
2019-02-26T03:07:31.273Z,41.90
2019-02-26T03:08:31.276Z,46.90
2019-02-26T03:09:34.395Z,38.20
2019-02-26T03:10:34.613Z,39.50
2019-02-26T03:11:35.932Z,37.80
2019-02-26T03:12:32.225Z,41.70
2019-02-26T03:13:31.192Z,40.30
2019-02-26T03:14:33.847Z,41.80
2019-02-26T03:15:33.714Z,37.80
2019-02-26T03:16:31.171Z,42.90
2019-02-26T03:17:31.178Z,38.90
2019-02-26T03:18:31.146Z,40.60
2019-02-26T03:19:32.628Z,43.50
2019-02-26T03:20:35.589Z,41.30
2019-02-26T03:21:32.096Z,40.20
2019-02-26T03:22:32.836Z,42.30
2019-02-26T03:23:31.981Z,40.50
2019-02-26T03:24:33.193Z,42.00
2019-02-26T03:25:31.062Z,41.20
2019-02-26T03:26:31.058Z,43.00
2019-02-26T03:27:33.631Z,42.80
2019-02-26T03:28:34.862Z,45.00
2019-02-26T03:29:32.017Z,42.40
2019-02-26T03:30:33.895Z,44.50
2019-02-26T03:31:35.300Z,44.80
2019-02-26T03:32:32.018Z,42.60
2019-02-26T03:33:30.988Z,41.70
2019-02-26T03:34:30.984Z,43.40
2019-02-26T03:35:30.955Z,44.60
2019-02-26T03:36:31.611Z,43.50
2019-02-26T03:37:31.321Z,45.40
2019-02-26T03:38:30.926Z,46.20
2019-02-26T03:39:30.914Z,43.80
2019-02-26T03:40:33.127Z,42.50
2019-02-26T03:41:31.197Z,46.00
2019-02-26T03:42:30.891Z,44.20
2019-02-26T03:43:31.405Z,42.80
2019-02-26T03:44:30.857Z,43.80
2019-02-26T03:45:30.838Z,44.60
2019-02-26T03:46:30.825Z,43.70
2019-02-26T03:47:30.850Z,45.00
2019-02-26T03:48:30.825Z,44.90
2019-02-26T03:49:30.818Z,46.30
2019-02-26T03:50:30.795Z,46.30
2019-02-26T03:51:30.807Z,43.70
2019-02-26T03:52:32.154Z,45.80
2019-02-26T03:53:33.273Z,44.70
2019-02-26T03:54:30.758Z,45.40
2019-02-26T03:55:31.820Z,44.80
2019-02-26T03:56:30.727Z,43.10
2019-02-26T03:57:30.727Z,48.10
2019-02-26T03:58:30.693Z,47.40
2019-02-26T03:59:30.686Z,44.60
2019-02-26T04:00:32.419Z,46.10
2019-02-26T04:01:30.661Z,47.30
2019-02-26T04:02:30.681Z,45.40
2019-02-26T04:03:32.042Z,47.50
2019-02-26T04:04:31.715Z,44.80
2019-02-26T04:05:30.629Z,48.90
2019-02-26T04:06:33.094Z,46.10
2019-02-26T04:07:33.145Z,45.50
2019-02-26T04:08:30.585Z,45.50
2019-02-26T04:09:30.566Z,45.20
2019-02-26T04:10:30.570Z,45.40
2019-02-26T04:11:30.544Z,46.90
2019-02-26T04:12:36.033Z,46.30
2019-02-26T04:13:31.531Z,47.50
2019-02-26T04:14:30.724Z,45.70
2019-02-26T04:15:32.785Z,45.40
2019-02-26T04:16:32.370Z,45.90
2019-02-26T04:17:31.459Z,49.10
2019-02-26T04:18:34.182Z,45.50
2019-02-26T04:19:30.464Z,49.70
2019-02-26T04:20:30.454Z,44.00
2019-02-26T04:21:30.450Z,47.40
2019-02-26T04:22:30.462Z,45.20
2019-02-26T04:23:30.428Z,43.40
2019-02-26T04:24:33.310Z,47.80
2019-02-26T04:25:33.932Z,45.70
2019-02-26T04:26:32.266Z,45.90
2019-02-26T04:27:30.674Z,49.00
2019-02-26T04:28:33.048Z,46.70
2019-02-26T04:29:30.359Z,49.50
2019-02-26T04:30:34.083Z,48.50
2019-02-26T04:31:30.335Z,45.70
2019-02-26T04:32:30.315Z,49.20
2019-02-26T04:33:32.247Z,47.40
2019-02-26T04:34:30.302Z,48.20
2019-02-26T04:35:30.294Z,49.80
2019-02-26T04:36:30.272Z,47.30
2019-02-26T04:37:32.663Z,48.80
2019-02-26T04:38:31.171Z,47.90
2019-02-26T04:39:30.240Z,49.40
2019-02-26T04:40:30.988Z,49.30
2019-02-26T04:41:32.443Z,51.10
2019-02-26T04:42:32.524Z,48.10
2019-02-26T04:43:31.304Z,47.80
2019-02-26T04:44:31.402Z,51.30
2019-02-26T04:45:30.182Z,52.50
2019-02-26T04:46:31.610Z,47.30
2019-02-26T04:47:33.650Z,54.30
2019-02-26T04:48:32.489Z,52.70
2019-02-26T04:49:33.013Z,51.50
2019-02-26T04:50:33.005Z,53.20
2019-02-26T04:51:31.117Z,50.60
2019-02-26T04:52:32.373Z,51.20
2019-02-26T04:53:31.363Z,47.90
2019-02-26T04:54:31.028Z,51.10
2019-02-26T04:55:35.016Z,49.30
2019-02-26T04:56:33.529Z,48.90
2019-02-26T04:57:30.050Z,54.20
2019-02-26T04:58:30.037Z,51.30
2019-02-26T04:59:32.270Z,52.30
2019-02-26T05:00:32.838Z,50.60
2019-02-26T05:01:30.992Z,54.40
2019-02-26T05:02:29.996Z,50.80
2019-02-26T05:03:29.995Z,51.50
2019-02-26T05:04:30.634Z,49.60
2019-02-26T05:05:32.024Z,50.10
2019-02-26T05:06:29.953Z,48.80
2019-02-26T05:07:29.928Z,53.30
2019-02-26T05:08:32.114Z,50.40
2019-02-26T05:09:32.175Z,48.60
2019-02-26T05:10:31.936Z,53.80
2019-02-26T05:11:32.710Z,53.90
2019-02-26T05:12:33.887Z,46.80
2019-02-26T05:13:32.165Z,48.90
2019-02-26T05:14:29.851Z,49.10
2019-02-26T05:15:31.127Z,52.20
2019-02-26T05:16:32.823Z,48.00
2019-02-26T05:17:32.633Z,49.80
2019-02-26T05:18:32.632Z,52.00
2019-02-26T05:19:29.801Z,51.50
2019-02-26T05:20:31.457Z,50.80
2019-02-26T05:21:30.565Z,53.10
2019-02-26T05:22:30.878Z,47.80
2019-02-26T05:23:31.722Z,49.80
2019-02-26T05:24:29.761Z,50.20
2019-02-26T05:25:31.546Z,51.10
2019-02-26T05:26:30.299Z,49.40
2019-02-26T05:27:29.713Z,49.70
2019-02-26T05:28:32.697Z,49.50
2019-02-26T05:29:29.680Z,49.50
2019-02-26T05:30:29.669Z,51.60
2019-02-26T05:31:32.326Z,51.00
2019-02-26T05:32:32.337Z,52.30
2019-02-26T05:33:30.958Z,51.30
2019-02-26T05:34:29.620Z,51.70
2019-02-26T05:35:29.622Z,49.50
2019-02-26T05:36:31.717Z,51.20
2019-02-26T05:37:31.753Z,52.30
2019-02-26T05:38:30.605Z,51.30
2019-02-26T05:39:29.587Z,48.60
2019-02-26T05:40:29.556Z,50.50
2019-02-26T05:41:29.549Z,52.60
2019-02-26T05:42:29.530Z,55.10
2019-02-26T05:43:31.484Z,49.00
2019-02-26T05:44:29.509Z,52.40
2019-02-26T05:45:32.228Z,50.90
2019-02-26T05:46:30.494Z,50.90
2019-02-26T05:47:29.472Z,50.60
2019-02-26T05:48:29.491Z,50.30
2019-02-26T05:49:31.551Z,52.50
2019-02-26T05:50:30.257Z,52.00
2019-02-26T05:51:32.014Z,52.90
2019-02-26T05:52:30.650Z,51.20
2019-02-26T05:53:29.444Z,51.70
2019-02-26T05:54:29.410Z,54.30
2019-02-26T05:55:29.380Z,49.50
2019-02-26T05:56:29.386Z,50.70
2019-02-26T05:57:32.586Z,54.70
2019-02-26T05:58:29.387Z,51.00
2019-02-26T05:59:29.345Z,56.70
2019-02-26T06:00:33.110Z,50.30
2019-02-26T06:01:29.324Z,51.30
2019-02-26T06:02:29.320Z,52.90
2019-02-26T06:03:29.350Z,54.70
2019-02-26T06:04:29.288Z,51.30
2019-02-26T06:05:29.278Z,52.30
2019-02-26T06:06:29.264Z,54.60
2019-02-26T06:07:31.345Z,52.70
2019-02-26T06:08:32.683Z,50.80
2019-02-26T06:09:32.946Z,53.50
2019-02-26T06:10:30.473Z,50.60
2019-02-26T06:11:33.227Z,52.60
2019-02-26T06:12:30.499Z,52.50
2019-02-26T06:13:31.575Z,50.30
2019-02-26T06:14:31.289Z,52.40
2019-02-26T06:15:31.381Z,51.90
2019-02-26T06:16:31.371Z,55.60
2019-02-26T06:17:29.141Z,54.30
2019-02-26T06:18:29.137Z,55.20
2019-02-26T06:19:30.178Z,53.80
2019-02-26T06:20:31.260Z,54.20
2019-02-26T06:21:29.110Z,55.70
2019-02-26T06:22:31.581Z,59.00
2019-02-26T06:23:31.757Z,56.60
2019-02-26T06:24:29.716Z,54.10
2019-02-26T06:25:29.061Z,58.40
2019-02-26T06:26:32.671Z,56.60
2019-02-26T06:27:29.051Z,57.80
2019-02-26T06:28:29.038Z,53.10
2019-02-26T06:29:30.039Z,59.30
2019-02-26T06:30:29.049Z,56.10
2019-02-26T06:31:28.993Z,59.00
2019-02-26T06:32:32.158Z,56.30
2019-02-26T06:33:31.701Z,59.80
2019-02-26T06:34:28.987Z,59.30
2019-02-26T06:35:28.957Z,57.50
2019-02-26T06:36:30.452Z,56.10
2019-02-26T06:37:30.808Z,61.70
2019-02-26T06:38:32.187Z,57.50
2019-02-26T06:39:29.955Z,56.10
2019-02-26T06:40:32.387Z,57.50
2019-02-26T06:41:29.887Z,56.40
2019-02-26T06:42:30.862Z,55.30
2019-02-26T06:43:30.820Z,61.60
2019-02-26T06:44:28.854Z,61.80
2019-02-26T06:45:28.835Z,59.20
2019-02-26T06:46:29.448Z,56.00
2019-02-26T06:47:31.010Z,60.60
2019-02-26T06:48:29.828Z,62.10
2019-02-26T06:49:29.120Z,61.60
2019-02-26T06:50:28.777Z,61.10
2019-02-26T06:51:30.637Z,58.60
2019-02-26T06:52:29.895Z,58.60
2019-02-26T06:53:28.749Z,54.80
2019-02-26T06:54:31.319Z,60.30
2019-02-26T06:55:28.725Z,57.50
2019-02-26T06:56:30.153Z,56.70
2019-02-26T06:57:28.712Z,62.70
2019-02-26T06:58:28.688Z,55.30
2019-02-26T06:59:29.564Z,57.70
2019-02-26T07:00:29.365Z,59.50
2019-02-26T07:01:30.434Z,60.40
2019-02-26T07:02:29.148Z,56.00
2019-02-26T07:03:28.636Z,57.30
2019-02-26T07:04:30.110Z,57.80
2019-02-26T07:05:28.612Z,58.60
2019-02-26T07:06:30.192Z,57.30
2019-02-26T07:07:28.592Z,58.30
2019-02-26T07:08:30.822Z,59.80
2019-02-26T07:09:28.587Z,64.00
2019-02-26T07:10:31.168Z,57.50
2019-02-26T07:11:30.519Z,63.50
2019-02-26T07:12:28.600Z,62.50
2019-02-26T07:13:28.538Z,64.00
2019-02-26T07:14:30.238Z,65.50
2019-02-26T07:15:29.345Z,63.40
2019-02-26T07:16:28.498Z,63.50
2019-02-26T07:17:31.627Z,58.90
2019-02-26T07:18:29.464Z,57.90
2019-02-26T07:19:30.731Z,65.20
2019-02-26T07:20:34.122Z,59.60
2019-02-26T07:21:29.430Z,63.20
2019-02-26T07:22:28.423Z,61.60
2019-02-26T07:23:29.820Z,61.50
2019-02-26T07:24:28.418Z,61.90
2019-02-26T07:25:28.397Z,59.40
2019-02-26T07:26:28.374Z,64.70
2019-02-26T07:27:28.870Z,61.30
2019-02-26T07:28:28.370Z,65.20
2019-02-26T07:29:30.781Z,62.50
2019-02-26T07:30:28.325Z,62.30
2019-02-26T07:31:28.745Z,66.50
2019-02-26T07:32:28.318Z,65.30
2019-02-26T07:33:29.832Z,59.70
2019-02-26T07:34:28.338Z,65.10
2019-02-26T07:35:30.295Z,65.30
2019-02-26T07:36:28.267Z,65.50
2019-02-26T07:37:29.236Z,66.70
2019-02-26T07:38:28.245Z,65.90
2019-02-26T07:39:28.252Z,65.30
2019-02-26T07:40:30.398Z,64.50
2019-02-26T07:41:30.308Z,66.60
2019-02-26T07:42:28.206Z,60.80
2019-02-26T07:43:28.191Z,68.60
2019-02-26T07:44:28.467Z,67.50
2019-02-26T07:45:29.824Z,69.90
2019-02-26T07:46:28.152Z,70.10
2019-02-26T07:47:29.481Z,76.90
2019-02-26T07:48:29.481Z,65.60
2019-02-26T07:49:28.138Z,67.00
2019-02-26T07:50:31.407Z,69.50
2019-02-26T07:51:29.371Z,66.70
2019-02-26T07:52:28.818Z,68.30
2019-02-26T07:53:28.083Z,68.70
2019-02-26T07:54:28.959Z,65.10
2019-02-26T07:55:30.227Z,70.30
2019-02-26T07:56:30.131Z,70.90
2019-02-26T07:57:28.031Z,67.20
2019-02-26T07:58:28.019Z,67.70
2019-02-26T07:59:32.017Z,68.10
2019-02-26T08:00:28.007Z,74.90
2019-02-26T08:01:28.040Z,69.20
2019-02-26T08:02:30.146Z,69.90
2019-02-26T08:03:29.453Z,71.90
2019-02-26T08:04:27.961Z,71.00
2019-02-26T08:05:28.932Z,70.90
2019-02-26T08:06:29.367Z,69.00
2019-02-26T08:07:28.498Z,68.80
2019-02-26T08:08:27.915Z,71.50
2019-02-26T08:09:27.920Z,69.80
2019-02-26T08:10:27.887Z,71.30
2019-02-26T08:11:27.869Z,76.80
2019-02-26T08:12:27.867Z,69.50
2019-02-26T08:13:29.706Z,71.20
2019-02-26T08:14:27.877Z,71.70
2019-02-26T08:15:30.182Z,72.50
2019-02-26T08:16:30.027Z,69.50
2019-02-26T08:17:27.814Z,72.60
2019-02-26T08:18:27.805Z,68.90
2019-02-26T08:19:29.639Z,69.60
2019-02-26T08:20:28.450Z,68.60
2019-02-26T08:21:29.597Z,70.10
2019-02-26T08:22:30.161Z,71.90
2019-02-26T08:23:27.744Z,71.80
2019-02-26T08:24:27.753Z,68.90
2019-02-26T08:25:27.722Z,77.10
2019-02-26T08:26:29.174Z,71.00
2019-02-26T08:27:28.639Z,77.30
2019-02-26T08:28:27.685Z,69.50
2019-02-26T08:29:29.404Z,70.20
2019-02-26T08:30:27.662Z,71.30
2019-02-26T08:31:27.996Z,71.60
2019-02-26T08:32:28.621Z,72.90
2019-02-26T08:33:27.620Z,75.40
2019-02-26T08:34:27.660Z,72.90
2019-02-26T08:35:27.604Z,71.30
2019-02-26T08:36:27.598Z,68.10
2019-02-26T08:37:27.605Z,70.80
2019-02-26T08:38:30.055Z,72.50
2019-02-26T08:39:27.576Z,71.50
2019-02-26T08:40:27.566Z,71.50
2019-02-26T08:41:27.538Z,72.90
2019-02-26T08:42:27.541Z,71.00
2019-02-26T08:43:27.520Z,74.60
2019-02-26T08:44:28.187Z,71.40
2019-02-26T08:45:27.517Z,76.70
2019-02-26T08:46:27.500Z,67.50
2019-02-26T08:47:27.478Z,75.00
2019-02-26T08:48:27.478Z,72.60
2019-02-26T08:49:27.454Z,69.40
2019-02-26T08:50:30.655Z,76.60
2019-02-26T08:51:28.433Z,76.20
2019-02-26T08:52:29.269Z,71.80
2019-02-26T08:53:28.971Z,71.20
2019-02-26T08:54:30.249Z,73.90
2019-02-26T08:55:27.406Z,76.10
2019-02-26T08:56:28.284Z,74.50
2019-02-26T08:57:27.355Z,70.30
2019-02-26T08:58:28.271Z,79.40
2019-02-26T08:59:27.360Z,72.50
2019-02-26T09:00:27.351Z,75.60
2019-02-26T09:01:27.329Z,72.00
2019-02-26T09:02:27.303Z,72.60
2019-02-26T09:03:27.300Z,75.10
2019-02-26T09:04:27.289Z,73.20
2019-02-26T09:05:29.222Z,70.20
2019-02-26T09:06:27.270Z,73.90
2019-02-26T09:07:27.259Z,76.30
2019-02-26T09:08:27.239Z,75.00
2019-02-26T09:09:27.794Z,76.40
2019-02-26T09:10:27.223Z,76.50
2019-02-26T09:11:28.758Z,73.60
2019-02-26T09:12:27.343Z,73.60
2019-02-26T09:13:27.182Z,76.80
2019-02-26T09:14:27.784Z,78.80
2019-02-26T09:15:29.022Z,78.70
2019-02-26T09:16:28.321Z,79.10
2019-02-26T09:17:29.917Z,79.80
2019-02-26T09:18:30.708Z,78.40
2019-02-26T09:19:28.490Z,81.30
2019-02-26T09:20:27.130Z,79.70
2019-02-26T09:21:27.090Z,78.90
2019-02-26T09:22:28.489Z,79.80
2019-02-26T09:23:28.778Z,74.90
2019-02-26T09:24:27.077Z,80.20
2019-02-26T09:25:28.668Z,79.40
2019-02-26T09:26:27.046Z,77.90
2019-02-26T09:27:27.662Z,75.80
2019-02-26T09:28:27.554Z,75.00
2019-02-26T09:29:27.012Z,79.70
2019-02-26T09:30:28.175Z,79.80
2019-02-26T09:31:26.985Z,81.50
2019-02-26T09:32:28.294Z,76.20
2019-02-26T09:33:30.543Z,73.60
2019-02-26T09:34:29.312Z,79.30
2019-02-26T09:35:30.486Z,76.60
2019-02-26T09:36:29.225Z,75.30
2019-02-26T09:37:26.931Z,78.20
2019-02-26T09:38:26.891Z,73.10
2019-02-26T09:39:27.568Z,75.10
2019-02-26T09:40:29.256Z,73.60
2019-02-26T09:41:26.891Z,76.30
2019-02-26T09:42:27.900Z,74.90
2019-02-26T09:43:26.865Z,73.00
2019-02-26T09:44:28.559Z,75.20
2019-02-26T09:45:29.545Z,77.30
2019-02-26T09:46:26.815Z,77.70
2019-02-26T09:47:28.617Z,73.40
2019-02-26T09:48:26.788Z,72.40
2019-02-26T09:49:28.492Z,74.50
2019-02-26T09:50:26.782Z,74.30
2019-02-26T09:51:28.363Z,73.70
2019-02-26T09:52:27.690Z,75.10
2019-02-26T09:53:26.734Z,74.50
2019-02-26T09:54:26.732Z,76.50
2019-02-26T09:55:26.724Z,74.00
2019-02-26T09:56:26.706Z,78.70
2019-02-26T09:57:28.286Z,73.00
2019-02-26T09:58:26.683Z,73.20
2019-02-26T09:59:28.931Z,76.10
2019-02-26T10:00:29.331Z,79.70
2019-02-26T10:01:26.652Z,72.00
2019-02-26T10:02:28.633Z,73.10
2019-02-26T10:03:27.272Z,76.80
2019-02-26T10:04:28.779Z,73.60
2019-02-26T10:05:26.790Z,71.70
2019-02-26T10:06:26.588Z,73.10
2019-02-26T10:07:28.393Z,73.10
2019-02-26T10:08:27.962Z,74.50
2019-02-26T10:09:26.582Z,73.50
2019-02-26T10:10:29.181Z,70.40
2019-02-26T10:11:27.976Z,68.90
2019-02-26T10:12:28.051Z,73.60
2019-02-26T10:13:27.733Z,74.80
2019-02-26T10:14:28.689Z,73.80
2019-02-26T10:15:26.532Z,78.50
2019-02-26T10:16:28.231Z,74.20
2019-02-26T10:17:26.488Z,79.50
2019-02-26T10:18:27.959Z,70.70
2019-02-26T10:19:26.457Z,75.80
2019-02-26T10:20:29.720Z,70.70
2019-02-26T10:21:27.455Z,76.50
2019-02-26T10:22:28.654Z,75.70
2019-02-26T10:23:28.515Z,76.20
2019-02-26T10:24:27.307Z,68.80
2019-02-26T10:25:28.667Z,76.50
2019-02-26T10:26:28.682Z,72.90
2019-02-26T10:27:28.468Z,72.80
2019-02-26T10:28:26.372Z,78.60
2019-02-26T10:29:26.334Z,71.10
2019-02-26T10:30:28.314Z,75.80
2019-02-26T10:31:27.602Z,76.90
2019-02-26T10:32:26.945Z,72.30
2019-02-26T10:33:26.328Z,70.80
2019-02-26T10:34:30.172Z,77.70
2019-02-26T10:35:33.144Z,76.20
2019-02-26T10:36:30.349Z,76.90
2019-02-26T10:37:27.244Z,74.00
2019-02-26T10:38:29.609Z,70.80
2019-02-26T10:39:28.322Z,72.30
2019-02-26T10:40:34.565Z,71.20
2019-02-26T10:41:27.210Z,68.80
2019-02-26T10:42:26.191Z,72.80
2019-02-26T10:43:26.191Z,72.90
2019-02-26T10:44:26.174Z,72.60
2019-02-26T10:45:26.161Z,71.00
2019-02-26T10:46:26.191Z,69.30
2019-02-26T10:47:27.509Z,70.00
2019-02-26T10:48:27.925Z,70.70
2019-02-26T10:49:26.110Z,74.40
2019-02-26T10:50:31.104Z,73.80
2019-02-26T10:51:27.262Z,71.70
2019-02-26T10:52:28.259Z,71.60
2019-02-26T10:53:26.073Z,73.60
2019-02-26T10:54:28.645Z,74.00
2019-02-26T10:55:31.376Z,71.90
2019-02-26T10:56:28.720Z,69.50
2019-02-26T10:57:28.511Z,72.10
2019-02-26T10:58:26.023Z,72.50
2019-02-26T10:59:26.011Z,69.80
2019-02-26T11:00:30.132Z,72.00
2019-02-26T11:01:28.735Z,73.80
2019-02-26T11:02:27.906Z,71.40
2019-02-26T11:03:25.987Z,70.90
2019-02-26T11:04:34.384Z,71.80
2019-02-26T11:05:26.940Z,70.40
2019-02-26T11:06:25.949Z,74.80
2019-02-26T11:07:26.455Z,71.30
2019-02-26T11:08:28.951Z,75.90
2019-02-26T11:09:29.284Z,69.90
2019-02-26T11:10:25.885Z,71.30
2019-02-26T11:11:25.894Z,70.20
2019-02-26T11:12:28.535Z,70.10
2019-02-26T11:13:25.961Z,69.10
2019-02-26T11:14:25.845Z,69.80
2019-02-26T11:15:26.997Z,72.30
2019-02-26T11:16:27.957Z,68.30
2019-02-26T11:17:26.313Z,67.80
2019-02-26T11:18:25.794Z,68.20
2019-02-26T11:19:27.319Z,70.20
2019-02-26T11:20:28.281Z,73.20
2019-02-26T11:21:25.802Z,73.50
2019-02-26T11:22:27.556Z,69.70
2019-02-26T11:23:30.784Z,69.80
2019-02-26T11:24:30.263Z,72.20
2019-02-26T11:25:27.388Z,70.30
2019-02-26T11:26:25.728Z,70.30
2019-02-26T11:27:25.702Z,70.70
2019-02-26T11:28:29.801Z,71.30
2019-02-26T11:29:28.643Z,72.60
2019-02-26T11:30:28.687Z,71.50
2019-02-26T11:31:25.678Z,72.30
2019-02-26T11:32:27.824Z,69.80
2019-02-26T11:33:25.629Z,72.90
2019-02-26T11:34:27.850Z,76.50
2019-02-26T11:35:27.353Z,76.80
2019-02-26T11:36:25.621Z,72.10
2019-02-26T11:37:27.172Z,72.70
2019-02-26T11:38:25.581Z,72.50
2019-02-26T11:39:25.569Z,76.00
2019-02-26T11:40:28.079Z,69.20
2019-02-26T11:41:26.354Z,70.50
2019-02-26T11:42:26.067Z,72.10
2019-02-26T11:43:26.992Z,70.40
2019-02-26T11:44:27.611Z,72.40
2019-02-26T11:45:25.503Z,73.80
2019-02-26T11:46:27.207Z,69.40
2019-02-26T11:47:25.503Z,73.90
2019-02-26T11:48:25.931Z,68.20
2019-02-26T11:49:25.471Z,72.10
2019-02-26T11:50:28.081Z,72.50
2019-02-26T11:51:25.458Z,72.30
2019-02-26T11:52:25.415Z,72.70
2019-02-26T11:53:29.625Z,66.60
2019-02-26T11:54:25.429Z,72.10
2019-02-26T11:55:26.856Z,70.00
2019-02-26T11:56:25.874Z,67.80
2019-02-26T11:57:25.373Z,71.00
2019-02-26T11:58:26.954Z,69.50
2019-02-26T11:59:25.343Z,68.60
2019-02-26T12:00:25.791Z,66.40
2019-02-26T12:01:27.002Z,69.10
2019-02-26T12:02:31.350Z,69.70
2019-02-26T12:03:29.189Z,69.50
2019-02-26T12:04:25.285Z,69.10
2019-02-26T12:05:31.407Z,69.50
2019-02-26T12:06:26.285Z,71.40
2019-02-26T12:07:27.257Z,66.60
2019-02-26T12:08:25.945Z,67.30
2019-02-26T12:09:25.225Z,72.20
2019-02-26T12:10:26.972Z,67.30
2019-02-26T12:11:25.232Z,73.30
2019-02-26T12:12:25.819Z,68.30
2019-02-26T12:13:27.614Z,67.90
2019-02-26T12:14:25.177Z,74.60
2019-02-26T12:15:26.696Z,73.30
2019-02-26T12:16:28.309Z,69.00
2019-02-26T12:17:25.168Z,74.40
2019-02-26T12:18:25.143Z,67.70
2019-02-26T12:19:25.649Z,71.90
2019-02-26T12:20:25.110Z,69.90
2019-02-26T12:21:25.693Z,74.30
2019-02-26T12:22:27.322Z,70.60
2019-02-26T12:23:25.070Z,70.80
2019-02-26T12:24:26.690Z,70.40
2019-02-26T12:25:25.052Z,68.40
2019-02-26T12:26:25.572Z,71.90
2019-02-26T12:27:25.060Z,69.50
2019-02-26T12:28:27.803Z,70.40
2019-02-26T12:29:26.006Z,76.00
2019-02-26T12:30:25.010Z,69.90
2019-02-26T12:31:27.558Z,74.60
2019-02-26T12:32:27.068Z,73.20
2019-02-26T12:33:24.965Z,72.40
2019-02-26T12:34:24.986Z,69.20
2019-02-26T12:35:24.979Z,74.40
2019-02-26T12:36:26.607Z,69.10
2019-02-26T12:37:24.929Z,68.80
2019-02-26T12:38:24.908Z,71.50
2019-02-26T12:39:25.752Z,74.70
2019-02-26T12:40:25.579Z,73.60
2019-02-26T12:41:24.876Z,73.60
2019-02-26T12:42:24.882Z,73.30
2019-02-26T12:43:24.856Z,73.90
2019-02-26T12:44:24.838Z,72.50
2019-02-26T12:46:27.584Z,67.80
2019-02-26T12:47:27.587Z,68.40
2019-02-26T12:48:24.810Z,69.40
2019-02-26T12:49:24.792Z,67.10
2019-02-26T12:50:29.072Z,65.60
2019-02-26T12:51:26.296Z,63.40
2019-02-26T12:52:26.952Z,67.80
2019-02-26T12:53:25.766Z,69.20